Time;durP1;ratioP1;P1;durP2;ratioP2;P2;SDS_P1;SDS_P2;PMS_P1;PMS_P2;Temp;Humidity;BMP_temperature;BMP_pressure;BME280_temperature;BME280_humidity;BME280_pressure;Samples;Min_cycle;Max_cycle;Signal;HPM_P1;HPM_P2
2022/07/31 16:42:03;;;;;;;3.60;2.00;;;25.70;62.20;;;;;;5152607;27;20415;-77
2022/07/31 16:44:29;;;;;;;2.10;1.83;;;25.60;63.20;;;;;;5152329;27;20458;-76
2022/07/31 16:46:54;;;;;;;2.13;2.03;;;25.50;63.70;;;;;;5152178;27;20027;-69
2022/07/31 16:49:20;;;;;;;4.15;1.90;;;25.40;63.90;;;;;;5152353;27;20030;-75
2022/07/31 16:51:46;;;;;;;2.33;2.03;;;25.30;64.10;;;;;;5152477;27;20034;-74
2022/07/31 16:54:11;;;;;;;2.83;1.85;;;25.20;64.50;;;;;;5152391;27;20038;-75
2022/07/31 16:56:37;;;;;;;2.40;2.00;;;25.20;64.50;;;;;;5152138;27;20023;-76
2022/07/31 16:59:03;;;;;;;3.38;1.88;;;25.00;64.60;;;;;;5146134;27;20031;-74
2022/07/31 17:01:31;;;;;;;3.58;2.20;;;25.00;65.00;;;;;;5131702;27;20023;-76
2022/07/31 17:03:58;;;;;;;2.55;1.80;;;24.90;65.00;;;;;;5131781;27;20019;-76
2022/07/31 17:06:24;;;;;;;1.80;1.70;;;24.80;65.30;;;;;;5131495;27;20164;-74
2022/07/31 17:08:49;;;;;;;5.00;2.10;;;24.80;65.40;;;;;;5130364;28;20019;-74
2022/07/31 17:11:15;;;;;;;3.42;1.80;;;24.70;65.20;;;;;;5131300;28;20042;-76
2022/07/31 17:13:41;;;;;;;2.83;1.95;;;24.70;64.80;;;;;;5130969;28;20388;-75
2022/07/31 17:16:06;;;;;;;1.60;1.50;;;24.60;65.20;;;;;;5131140;28;20080;-77
2022/07/31 17:18:32;;;;;;;3.00;1.90;;;24.60;65.10;;;;;;5131399;27;20444;-74
2022/07/31 17:20:58;;;;;;;1.58;1.48;;;24.50;65.40;;;;;;5131060;28;20037;-74
2022/07/31 17:23:24;;;;;;;2.67;1.83;;;24.50;65.50;;;;;;5131344;27;20034;-76
2022/07/31 17:25:50;;;;;;;1.75;1.65;;;24.40;65.60;;;;;;5129982;28;20023;-67
2022/07/31 17:28:15;;;;;;;3.20;2.10;;;24.40;65.80;;;;;;5129782;28;20030;-58
2022/07/31 17:30:43;;;;;;;1.70;1.60;;;24.40;66.30;;;;;;5129706;28;20040;-58
2022/07/31 17:33:10;;;;;;;4.13;2.22;;;24.40;66.10;;;;;;5129713;28;20023;-57
2022/07/31 17:35:36;;;;;;;5.22;1.92;;;24.30;66.50;;;;;;5130971;27;20114;-57
2022/07/31 17:38:02;;;;;;;2.97;1.80;;;24.30;66.50;;;;;;5131231;27;20112;-58
2022/07/31 17:40:28;;;;;;;2.03;1.70;;;24.30;65.80;;;;;;5145265;27;20501;-55
2022/07/31 17:42:53;;;;;;;1.80;1.70;;;24.30;66.20;;;;;;5159095;27;20027;-54
2022/07/31 17:45:19;;;;;;;1.48;1.38;;;24.30;66.60;;;;;;5158565;27;20031;-57
2022/07/31 17:47:45;;;;;;;2.55;1.85;;;24.30;66.70;;;;;;5158280;27;20058;-55
2022/07/31 17:50:10;;;;;;;2.20;2.00;;;24.20;66.70;;;;;;5158137;27;20383;-55
2022/07/31 17:52:36;;;;;;;12.20;2.85;;;24.20;66.00;;;;;;5158156;27;20019;-56
2022/07/31 17:55:06;;;;;;;2.22;1.83;;;24.10;67.10;;;;;;5158111;27;20027;-55
2022/07/31 17:57:32;;;;;;;2.03;1.77;;;24.10;67.40;;;;;;5158177;27;20026;-54
2022/07/31 18:00:02;;;;;;;2.00;1.90;;;24.00;67.90;;;;;;5158317;27;20030;-55
2022/07/31 18:02:29;;;;;;;3.53;1.80;;;24.00;68.10;;;;;;5139735;27;20027;-55
2022/07/31 18:04:54;;;;;;;1.90;1.63;;;23.90;68.00;;;;;;5138969;27;20027;-55
2022/07/31 18:07:21;;;;;;;2.67;2.25;;;23.80;69.60;;;;;;5157700;27;20360;-55
2022/07/31 18:09:47;;;;;;;2.97;2.13;;;23.70;69.80;;;;;;5157925;27;20027;-55
2022/07/31 18:12:12;;;;;;;4.28;2.15;;;23.60;70.10;;;;;;5157588;27;20486;-56
2022/07/31 18:14:38;;;;;;;3.45;2.60;;;23.60;70.60;;;;;;5157816;27;20035;-54
2022/07/31 18:17:04;;;;;;;5.05;2.15;;;23.50;70.80;;;;;;5157756;27;20023;-55
2022/07/31 18:19:30;;;;;;;2.17;1.95;;;23.40;71.80;;;;;;5157662;27;20030;-55
2022/07/31 18:21:57;;;;;;;2.42;2.20;;;23.30;71.70;;;;;;5157925;27;20037;-55
2022/07/31 18:24:23;;;;;;;2.03;1.88;;;23.20;72.80;;;;;;5157602;27;20035;-60
2022/07/31 18:26:50;;;;;;;2.72;2.20;;;23.20;73.30;;;;;;5138686;27;20067;-75
2022/07/31 18:29:16;;;;;;;2.20;1.90;;;23.10;73.60;;;;;;5157696;27;20030;-75
2022/07/31 18:31:46;;;;;;;3.15;2.85;;;23.00;73.90;;;;;;5157502;27;20027;-75
2022/07/31 18:34:12;;;;;;;2.80;2.60;;;22.90;75.20;;;;;;5138910;27;20023;-75
2022/07/31 18:36:39;;;;;;;4.43;1.98;;;22.80;77.10;;;;;;5140119;27;20466;-75
2022/07/31 18:39:05;;;;;;;5.55;2.40;;;22.70;76.90;;;;;;5140322;27;20129;-75
2022/07/31 18:41:32;;;;;;;2.80;2.20;;;22.60;77.50;;;;;;5156881;27;20102;-75
2022/07/31 18:43:59;;;;;;;1.95;1.75;;;22.50;78.20;;;;;;5157682;27;20019;-75
2022/07/31 18:46:25;;;;;;;2.63;1.88;;;22.50;79.70;;;;;;5138660;27;20023;-74
2022/07/31 18:48:52;;;;;;;2.05;1.70;;;22.30;79.50;;;;;;5138891;27;20168;-74
2022/07/31 18:51:18;;;;;;;2.00;1.80;;;22.20;79.70;;;;;;5138353;27;20466;-75
2022/07/31 18:53:43;;;;;;;2.08;1.98;;;22.20;80.70;;;;;;5155682;27;20035;-65
2022/07/31 18:56:09;;;;;;;4.97;1.80;;;22.10;82.50;;;;;;5156756;27;20019;-65
2022/07/31 18:58:35;;;;;;;2.45;1.90;;;22.00;82.80;;;;;;5156785;27;20448;-64
2022/07/31 19:01:01;;;;;;;2.95;1.88;;;22.00;83.60;;;;;;5156948;27;20390;-64
2022/07/31 19:03:29;;;;;;;3.05;1.70;;;21.90;84.30;;;;;;5156817;27;20022;-64
2022/07/31 19:05:55;;;;;;;2.70;2.03;;;21.90;84.90;;;;;;5138201;27;20054;-64
2022/07/31 19:08:20;;;;;;;2.00;1.90;;;21.90;85.90;;;;;;5138458;27;20069;-71
2022/07/31 19:10:52;;;;;;;3.83;1.80;;;21.90;86.40;;;;;;5156208;27;20038;-73
2022/07/31 19:13:21;;;;;;;2.70;1.90;;;21.80;87.20;;;;;;5156819;27;20018;-67
2022/07/31 19:15:49;;;;;;;2.17;1.90;;;21.90;88.00;;;;;;5156584;27;20060;-66
2022/07/31 19:18:15;;;;;;;4.18;1.92;;;21.90;90.90;;;;;;5137985;27;20498;-64
2022/07/31 19:20:41;;;;;;;3.60;2.00;;;21.80;91.40;;;;;;5156058;27;20030;-64
2022/07/31 19:23:07;;;;;;;6.35;2.10;;;21.80;92.10;;;;;;5156318;27;20027;-64
2022/07/31 19:25:35;;;;;;;2.50;1.60;;;21.80;92.60;;;;;;5137727;27;20068;-66
2022/07/31 19:28:01;;;;;;;2.75;2.25;;;21.80;93.30;;;;;;5156383;27;20023;-66
2022/07/31 19:30:26;;;;;;;2.03;1.80;;;21.80;94.00;;;;;;5156219;27;20035;-64
2022/07/31 19:32:53;;;;;;;1.80;1.70;;;21.80;93.90;;;;;;5137753;27;20018;-64
2022/07/31 19:35:19;;;;;;;1.83;1.65;;;21.70;94.40;;;;;;5156299;27;20379;-66
2022/07/31 19:37:44;;;;;;;3.90;1.90;;;21.70;95.20;;;;;;5156014;27;20050;-64
2022/07/31 19:40:11;;;;;;;2.38;2.13;;;21.70;95.00;;;;;;5155578;27;20479;-64
2022/07/31 19:42:38;;;;;;;3.05;1.92;;;21.70;95.60;;;;;;5156128;27;20029;-65
2022/07/31 19:45:04;;;;;;;5.13;2.30;;;21.70;97.50;;;;;;5155926;27;20091;-65
2022/07/31 19:47:30;;;;;;;2.20;2.03;;;21.60;98.00;;;;;;5155933;27;20372;-65
2022/07/31 19:49:55;;;;;;;3.33;2.10;;;21.60;99.10;;;;;;5156153;27;20026;-65
2022/07/31 19:52:21;;;;;;;3.78;2.03;;;21.50;99.90;;;;;;5155541;27;20109;-66
2022/07/31 19:54:47;;;;;;;2.28;2.08;;;21.40;99.90;;;;;;5155643;27;20026;-66
2022/07/31 19:57:12;;;;;;;3.95;2.05;;;21.30;99.90;;;;;;5155819;27;20034;-66
2022/07/31 19:59:38;;;;;;;4.40;2.72;;;21.30;99.90;;;;;;5155960;27;20033;-65
2022/07/31 20:02:04;;;;;;;3.25;2.10;;;21.30;99.90;;;;;;5155790;27;20027;-63
2022/07/31 20:04:30;;;;;;;2.60;2.40;;;21.20;99.90;;;;;;5155369;27;20047;-66
2022/07/31 20:06:56;;;;;;;3.10;2.72;;;21.20;99.90;;;;;;5155481;27;20023;-75
2022/07/31 20:09:22;;;;;;;4.93;2.10;;;21.10;99.90;;;;;;5155600;27;20110;-76
2022/07/31 20:11:48;;;;;;;3.70;2.35;;;21.10;99.90;;;;;;5155310;27;20066;-76
2022/07/31 20:14:14;;;;;;;3.40;2.38;;;21.00;99.90;;;;;;5137013;27;20046;-74
2022/07/31 20:16:40;;;;;;;2.70;2.38;;;21.00;99.90;;;;;;5137233;27;20022;-76
2022/07/31 20:19:05;;;;;;;2.85;2.20;;;20.90;99.90;;;;;;5137298;27;20051;-76
2022/07/31 20:21:31;;;;;;;9.02;2.40;;;20.90;99.90;;;;;;5155291;27;20053;-75
2022/07/31 20:23:59;;;;;;;2.60;2.40;;;20.80;99.90;;;;;;5155515;27;20030;-76
2022/07/31 20:26:25;;;;;;;3.20;2.10;;;20.70;99.90;;;;;;5137073;27;20041;-75
2022/07/31 20:28:51;;;;;;;6.43;2.75;;;20.60;99.90;;;;;;5155732;27;20348;-76
2022/07/31 20:31:17;;;;;;;2.72;2.25;;;20.50;99.90;;;;;;5136870;27;20592;-75
2022/07/31 20:33:43;;;;;;;3.83;2.47;;;20.40;99.90;;;;;;5155813;27;20352;-75
2022/07/31 20:36:09;;;;;;;3.13;2.85;;;20.30;99.90;;;;;;5155682;27;20106;-75
2022/07/31 20:38:35;;;;;;;3.28;3.00;;;20.20;99.90;;;;;;5136893;27;20117;-75
2022/07/31 20:41:01;;;;;;;5.97;3.10;;;20.10;99.90;;;;;;5154944;27;20042;-75
2022/07/31 20:43:28;;;;;;;4.00;2.97;;;20.00;99.90;;;;;;5155331;27;20041;-75
2022/07/31 20:45:56;;;;;;;2.70;2.50;;;19.90;99.90;;;;;;5155276;27;20072;-75
2022/07/31 20:48:22;;;;;;;2.88;2.63;;;19.90;99.90;;;;;;5136700;27;20520;-75
2022/07/31 20:50:49;;;;;;;2.95;2.72;;;19.70;99.90;;;;;;5136587;27;20026;-75
2022/07/31 20:53:16;;;;;;;3.30;3.00;;;19.70;99.90;;;;;;5136666;27;20057;-75
2022/07/31 20:55:45;;;;;;;2.95;2.58;;;19.60;99.90;;;;;;5155217;27;20023;-75
2022/07/31 20:58:12;;;;;;;5.43;3.00;;;19.50;99.90;;;;;;5136680;27;20054;-75
2022/07/31 21:00:38;;;;;;;9.48;3.25;;;19.50;99.90;;;;;;5136564;27;20099;-75
2022/07/31 21:03:04;;;;;;;3.60;2.90;;;19.40;99.90;;;;;;5155258;27;20071;-75
2022/07/31 21:05:30;;;;;;;3.90;3.15;;;19.30;99.90;;;;;;5136593;27;20497;-75
2022/07/31 21:07:57;;;;;;;6.65;3.38;;;19.30;99.90;;;;;;5155420;27;20027;-75
2022/07/31 21:10:25;;;;;;;7.32;3.50;;;19.20;99.90;;;;;;5136080;27;20030;-76
2022/07/31 21:12:52;;;;;;;4.60;3.67;;;19.10;99.90;;;;;;5136515;27;20054;-74
2022/07/31 21:15:18;;;;;;;3.80;3.42;;;19.10;99.90;;;;;;5136445;27;20022;-75
2022/07/31 21:17:44;;;;;;;4.35;3.40;;;19.00;99.90;;;;;;5139193;27;20038;-74
2022/07/31 21:20:10;;;;;;;4.57;3.10;;;19.00;99.90;;;;;;5140227;27;20026;-74
2022/07/31 21:22:35;;;;;;;3.67;3.33;;;19.00;99.90;;;;;;5140185;27;20041;-73
2022/07/31 21:25:03;;;;;;;4.00;3.47;;;18.90;99.90;;;;;;5140565;27;20445;-73
2022/07/31 21:27:30;;;;;;;3.80;3.53;;;18.90;99.90;;;;;;5140157;27;20052;-74
2022/07/31 21:29:55;;;;;;;3.88;3.50;;;18.90;99.90;;;;;;5158732;27;20080;-74
2022/07/31 21:32:22;;;;;;;3.63;3.33;;;18.90;99.90;;;;;;5158697;27;20023;-73
2022/07/31 21:34:48;;;;;;;4.78;3.13;;;18.90;99.90;;;;;;5158577;27;20071;-74
2022/07/31 21:37:16;;;;;;;4.93;3.47;;;18.90;99.90;;;;;;5158271;27;20382;-74
2022/07/31 21:39:42;;;;;;;3.30;3.03;;;18.90;99.90;;;;;;5139702;27;20100;-74
2022/07/31 21:42:08;;;;;;;5.55;3.70;;;18.90;99.90;;;;;;5158549;27;20027;-73
2022/07/31 21:44:34;;;;;;;4.03;3.33;;;18.90;99.90;;;;;;5158500;27;20047;-74
2022/07/31 21:47:01;;;;;;;3.42;3.13;;;18.90;99.90;;;;;;5140386;27;20027;-74
2022/07/31 21:49:35;;;;;;;3.92;3.60;;;18.80;99.90;;;;;;5158361;27;20030;-74
2022/07/31 21:52:01;;;;;;;6.07;3.28;;;18.80;99.90;;;;;;5158607;27;20513;-74
2022/07/31 21:54:28;;;;;;;4.07;3.60;;;18.70;99.90;;;;;;5139818;27;20023;-73
2022/07/31 21:56:53;;;;;;;4.70;3.95;;;18.70;99.90;;;;;;5139778;27;20513;-73
2022/07/31 21:59:19;;;;;;;3.92;3.63;;;18.70;99.90;;;;;;5158242;27;20027;-74
2022/07/31 22:01:45;;;;;;;5.28;3.60;;;18.60;99.90;;;;;;5139809;27;20080;-74
2022/07/31 22:04:11;;;;;;;3.75;3.45;;;18.60;99.90;;;;;;5158266;27;20462;-74
2022/07/31 22:09:23;;;;;;;7.13;3.80;;;18.40;99.90;;;;;;5157799;27;20037;-74
2022/07/31 22:11:53;;;;;;;5.40;4.18;;;18.50;99.90;;;;;;5158012;27;20026;-74
2022/07/31 22:14:19;;;;;;;3.33;3.13;;;18.40;99.90;;;;;;5139574;27;20072;-74
2022/07/31 22:16:45;;;;;;;4.70;4.30;;;18.40;99.90;;;;;;5139203;27;20113;-74
2022/07/31 22:19:11;;;;;;;4.13;3.80;;;18.40;99.90;;;;;;5157808;27;20065;-74
2022/07/31 22:21:37;;;;;;;5.65;3.55;;;18.30;99.90;;;;;;5157751;27;20037;-74
2022/07/31 22:24:06;;;;;;;5.53;4.07;;;18.30;99.90;;;;;;5158021;27;20043;-74
2022/07/31 22:26:32;;;;;;;8.18;4.05;;;18.30;99.90;;;;;;5138840;27;20029;-74
2022/07/31 22:28:58;;;;;;;6.07;3.83;;;18.30;99.90;;;;;;5157505;27;20023;-74
2022/07/31 22:31:27;;;;;;;3.80;3.50;;;18.30;99.90;;;;;;5157229;27;20475;-74
2022/07/31 22:33:52;;;;;;;;;;;18.20;99.90;;;;;;5157661;27;20027;-74
2022/07/31 22:36:19;;;;;;;7.38;5.95;;;18.20;99.90;;;;;;5173665;27;19965;-74
2022/07/31 22:38:47;;;;;;;4.22;3.85;;;18.10;99.90;;;;;;5138933;27;20022;-74
2022/07/31 22:41:13;;;;;;;5.82;4.10;;;18.10;99.90;;;;;;5156941;27;20042;-75
2022/07/31 22:43:40;;;;;;;6.00;4.72;;;18.10;99.90;;;;;;5169626;27;20037;-74
2022/07/31 22:46:08;;;;;;;4.07;3.75;;;18.10;99.90;;;;;;5159148;27;20026;-74
2022/07/31 22:48:35;;;;;;;5.80;4.60;;;18.10;99.90;;;;;;5159462;27;20463;-74
2022/07/31 22:51:02;;;;;;;4.88;4.22;;;18.10;99.90;;;;;;5159266;27;20501;-74
2022/07/31 22:53:28;;;;;;;7.05;4.05;;;18.10;99.90;;;;;;5178261;27;20029;-74
2022/07/31 22:55:54;;;;;;;6.68;4.30;;;18.10;99.90;;;;;;5159592;27;20378;-75
2022/07/31 22:58:20;;;;;;;6.80;3.88;;;18.10;99.90;;;;;;5177902;27;20506;-75
2022/07/31 23:00:47;;;;;;;4.07;3.78;;;18.10;99.90;;;;;;5159182;27;20470;-75
2022/07/31 23:03:13;;;;;;;4.70;4.20;;;18.00;99.90;;;;;;5177655;27;20034;-75
2022/07/31 23:05:38;;;;;;;4.40;3.97;;;18.00;99.90;;;;;;5159186;27;20022;-75
2022/07/31 23:08:04;;;;;;;4.43;3.95;;;18.00;99.90;;;;;;5177551;27;20026;-75
2022/07/31 23:10:30;;;;;;;6.47;4.00;;;18.00;99.90;;;;;;5158917;27;20102;-74
2022/07/31 23:12:56;;;;;;;5.20;4.78;;;18.00;99.90;;;;;;5177806;27;20109;-80
2022/07/31 23:15:22;;;;;;;4.38;3.95;;;18.00;99.90;;;;;;5159113;27;20074;-80
2022/07/31 23:17:48;;;;;;;4.25;3.88;;;18.00;99.90;;;;;;5177537;27;20026;-79
2022/07/31 23:20:13;;;;;;;5.90;4.00;;;18.00;99.90;;;;;;5160317;27;20034;-79
2022/07/31 23:22:39;;;;;;;5.65;4.45;;;18.00;99.90;;;;;;5160200;27;20028;-79
2022/07/31 23:25:05;;;;;;;4.40;4.03;;;17.90;99.90;;;;;;5178469;27;20026;-79
2022/07/31 23:27:32;;;;;;;5.30;4.60;;;17.80;99.90;;;;;;5159976;27;20027;-79
2022/07/31 23:29:58;;;;;;;6.47;4.82;;;17.80;99.90;;;;;;5159709;27;20037;-79
2022/07/31 23:32:24;;;;;;;5.50;5.05;;;17.80;99.90;;;;;;5159096;27;20022;-79
2022/07/31 23:34:50;;;;;;;5.68;4.75;;;17.70;99.90;;;;;;5177576;27;20022;-79
2022/07/31 23:37:15;;;;;;;5.40;5.00;;;17.70;99.90;;;;;;5177430;27;20105;-79
2022/07/31 23:39:41;;;;;;;5.03;4.53;;;17.80;99.90;;;;;;5176477;27;20051;-79
2022/07/31 23:44:51;;;;;;;4.60;4.20;;;17.90;99.90;;;;;;5177496;27;20037;-80
2022/07/31 23:47:16;;;;;;;5.22;4.72;;;17.90;99.90;;;;;;5158425;27;20404;-80
2022/07/31 23:49:42;;;;;;;6.65;4.65;;;17.90;99.90;;;;;;5158230;27;20075;-80
2022/07/31 23:52:08;;;;;;;5.57;4.10;;;17.90;99.90;;;;;;5177035;27;20018;-80
2022/07/31 23:54:33;;;;;;;8.25;4.35;;;17.80;99.90;;;;;;5176919;27;20464;-79
2022/07/31 23:56:59;;;;;;;6.00;4.57;;;17.80;99.90;;;;;;5158378;27;20478;-80
2022/07/31 23:59:25;;;;;;;4.95;4.50;;;17.70;99.90;;;;;;5158353;27;20026;-79
